createdAt,value
2023-07-11T00:01:17.105Z,97062.41
2023-07-11T00:06:15.791Z,97064.38
2023-07-11T00:11:10.725Z,97065.97
2023-07-11T00:16:08.372Z,97065.63
2023-07-11T00:21:00.690Z,97061.63
2023-07-11T00:25:52.964Z,97062.00
2023-07-11T00:30:44.845Z,97060.00
2023-07-11T00:35:38.875Z,97060.66
2023-07-11T00:40:31.492Z,97060.19
2023-07-11T00:45:59.330Z,97066.97
2023-07-11T00:50:54.515Z,97063.28
2023-07-11T00:55:47.351Z,97063.13
2023-07-11T01:00:39.137Z,97060.75
2023-07-11T01:05:30.878Z,97065.59
2023-07-11T01:10:22.610Z,97051.78
2023-07-11T01:15:16.108Z,97051.34
2023-07-11T01:20:10.852Z,97052.25
2023-07-11T01:25:16.354Z,97039.66
2023-07-11T01:30:18.674Z,97045.84
2023-07-11T01:35:10.433Z,97031.75
2023-07-11T01:40:02.514Z,97034.84
2023-07-11T01:44:54.294Z,97022.66
2023-07-11T01:49:46.122Z,97021.59
2023-07-11T01:54:37.958Z,97015.78
2023-07-11T01:59:30.012Z,97007.53
2023-07-11T02:04:22.928Z,97003.88
2023-07-11T02:09:14.640Z,96998.59
2023-07-11T02:14:06.485Z,96995.78
2023-07-11T02:18:58.226Z,96991.00
2023-07-11T02:23:51.024Z,96991.88
2023-07-11T02:28:42.816Z,96981.75
2023-07-11T02:33:34.593Z,96987.16
2023-07-11T02:38:26.353Z,96981.81
2023-07-11T02:43:20.912Z,96980.00
2023-07-11T02:48:12.948Z,96969.03
2023-07-11T02:53:07.720Z,96971.00
2023-07-11T02:57:59.472Z,96967.91
2023-07-11T03:02:51.251Z,96969.81
2023-07-11T03:07:42.964Z,96962.66
2023-07-11T03:12:34.703Z,96965.06
2023-07-11T03:17:26.430Z,96970.16
2023-07-11T03:22:19.894Z,96970.75
2023-07-11T03:27:11.625Z,96968.63
2023-07-11T03:32:03.648Z,96968.13
2023-07-11T03:36:55.379Z,96963.34
2023-07-11T03:41:47.083Z,96963.63
2023-07-11T03:46:38.827Z,96952.16
2023-07-11T03:51:30.795Z,96951.59
2023-07-11T03:56:22.766Z,96956.34
2023-07-11T04:01:14.708Z,96945.63
2023-07-11T04:06:11.530Z,96943.84
2023-07-11T04:11:05.088Z,96944.94
2023-07-11T04:15:57.610Z,96944.25
2023-07-11T04:20:49.456Z,96934.66
2023-07-11T04:25:41.218Z,96922.13
2023-07-11T04:30:33.664Z,96924.97
2023-07-11T04:35:25.930Z,96934.00
2023-07-11T04:40:18.359Z,96934.59
2023-07-11T04:45:12.644Z,96929.91
2023-07-11T04:50:06.333Z,96932.53
2023-07-11T04:54:58.323Z,96931.06
2023-07-11T04:59:50.147Z,96925.03
2023-07-11T05:04:42.000Z,96931.19
2023-07-11T05:09:49.941Z,96923.50
2023-07-11T05:14:47.589Z,96914.41
2023-07-11T05:19:39.308Z,96918.16
2023-07-11T05:24:31.650Z,96914.34
2023-07-11T05:29:24.360Z,96910.75
2023-07-11T05:34:16.076Z,96911.69
2023-07-11T05:39:27.978Z,96913.03
2023-07-11T05:44:20.119Z,96907.94
2023-07-11T05:49:11.829Z,96914.59
2023-07-11T05:54:03.718Z,96912.41
2023-07-11T05:58:56.475Z,96919.25
2023-07-11T06:03:53.869Z,96908.91
2023-07-11T06:08:46.222Z,96908.69
2023-07-11T06:13:42.416Z,96911.13
2023-07-11T06:18:38.470Z,96905.97
2023-07-11T06:23:31.555Z,96909.50
2023-07-11T06:28:27.314Z,96900.81
2023-07-11T06:33:21.274Z,96895.94
2023-07-11T06:38:13.282Z,96890.63
2023-07-11T06:43:05.310Z,96893.34
2023-07-11T06:47:58.609Z,96888.16
2023-07-11T06:52:50.621Z,96889.84
2023-07-11T06:57:42.349Z,96888.91
2023-07-11T07:02:34.340Z,96880.22
2023-07-11T07:07:26.099Z,96878.81
2023-07-11T07:12:18.162Z,96872.97
2023-07-11T07:17:09.973Z,96868.72
2023-07-11T07:22:01.750Z,96854.72
2023-07-11T07:26:53.484Z,96855.91
2023-07-11T07:31:45.240Z,96860.53
2023-07-11T07:36:37.059Z,96866.06
2023-07-11T07:41:28.825Z,96866.38
2023-07-11T07:46:20.834Z,96859.72
2023-07-11T07:51:20.510Z,96862.97
2023-07-11T07:56:22.690Z,96866.75
2023-07-11T08:01:18.492Z,96868.56
2023-07-11T08:06:16.606Z,96874.44
2023-07-11T08:11:10.429Z,96867.63
2023-07-11T08:16:11.902Z,96857.22
2023-07-11T08:21:07.413Z,96854.69
2023-07-11T08:25:59.576Z,96846.66
2023-07-11T08:30:51.644Z,96846.13
2023-07-11T08:35:43.388Z,96838.00
2023-07-11T08:40:48.274Z,96838.84
2023-07-11T08:46:14.271Z,96834.84
2023-07-11T08:51:35.967Z,96822.06
2023-07-11T08:56:42.065Z,96808.72
2023-07-11T09:02:09.344Z,96805.19
2023-07-11T09:07:08.546Z,96796.28
2023-07-11T09:12:47.617Z,96792.69
2023-07-11T09:18:28.711Z,96791.72
2023-07-11T09:23:40.349Z,96783.75
2023-07-11T09:33:49.555Z,96778.72
2023-07-11T09:39:17.364Z,96771.25
2023-07-11T09:44:13.405Z,96765.16
2023-07-11T09:49:10.431Z,96768.88
2023-07-11T09:54:02.152Z,96751.84
2023-07-11T09:58:59.683Z,96757.22
2023-07-11T10:03:56.669Z,96758.97
2023-07-11T10:08:50.701Z,96751.03
2023-07-11T10:13:45.559Z,96747.53
2023-07-11T10:18:37.551Z,96746.22
2023-07-11T10:23:29.431Z,96736.94
2023-07-11T10:44:26.720Z,96715.94
2023-07-11T10:49:46.850Z,96706.91
2023-07-11T10:54:55.656Z,96700.59
2023-07-11T10:59:51.833Z,96686.34
2023-07-11T11:05:25.376Z,96683.78
2023-07-11T11:10:46.570Z,96676.44
2023-07-11T11:16:27.651Z,96662.88
2023-07-11T11:27:02.525Z,96637.31
2023-07-11T11:32:26.511Z,96634.25
2023-07-11T11:42:46.068Z,96612.97
2023-07-11T11:57:37.316Z,96601.38
2023-07-11T12:02:36.557Z,96598.69
2023-07-11T12:07:33.395Z,96588.97
2023-07-11T12:12:45.019Z,96588.16
2023-07-11T12:17:40.358Z,96580.75
2023-07-11T12:22:38.326Z,96576.41
2023-07-11T12:27:31.689Z,96577.63
2023-07-11T12:32:42.516Z,96574.91
2023-07-11T12:37:58.275Z,96560.06
2023-07-11T12:42:54.355Z,96552.28
2023-07-11T12:47:52.251Z,96540.13
2023-07-11T13:03:19.710Z,96520.22
2023-07-11T13:08:18.041Z,96514.75
2023-07-11T13:13:13.610Z,96503.84
2023-07-11T13:18:41.662Z,96506.19
2023-07-11T13:23:40.900Z,96505.41
2023-07-11T13:38:53.668Z,96499.50
2023-07-11T13:43:47.510Z,96487.78
2023-07-11T13:48:48.469Z,96480.72
2023-07-11T13:53:49.713Z,96474.59
2023-07-11T13:58:47.575Z,96482.38
2023-07-11T14:03:39.704Z,96469.88
2023-07-11T14:08:31.911Z,96465.63
2023-07-11T14:13:27.783Z,96465.25
2023-07-11T14:18:20.092Z,96460.53
2023-07-11T14:23:29.460Z,96465.56
2023-07-11T14:28:21.764Z,96453.72
2023-07-11T14:33:22.495Z,96465.44
2023-07-11T14:38:21.197Z,96458.94
2023-07-11T14:43:21.461Z,96455.41
2023-07-11T14:48:17.471Z,96448.41
2023-07-11T14:53:41.993Z,96451.13
2023-07-11T15:18:53.744Z,96432.72
2023-07-11T15:23:45.536Z,96412.44
2023-07-11T15:28:37.269Z,96420.22
2023-07-11T15:33:45.115Z,96414.31
2023-07-11T15:38:37.384Z,96397.97
2023-07-11T15:43:36.458Z,96396.81
2023-07-11T15:48:28.687Z,96388.69
2023-07-11T15:53:20.989Z,96382.84
2023-07-11T15:58:25.733Z,96368.81
2023-07-11T16:03:24.208Z,96359.97
2023-07-11T16:08:22.103Z,96352.50
2023-07-11T16:13:18.497Z,96343.56
2023-07-11T16:18:17.628Z,96336.56
2023-07-11T16:23:19.183Z,96329.06
2023-07-11T16:28:29.170Z,96332.03
2023-07-11T16:33:30.910Z,96317.41
2023-07-11T16:38:30.892Z,96320.25
2023-07-11T16:43:30.346Z,96307.75
2023-07-11T16:48:31.504Z,96269.84
2023-07-11T16:53:30.324Z,96263.41
2023-07-11T16:58:27.424Z,96249.19
2023-07-11T17:03:20.321Z,96249.63
2023-07-11T17:08:16.761Z,96245.00
2023-07-11T17:13:27.209Z,96238.72
2023-07-11T17:18:25.885Z,96232.09
2023-07-11T17:23:20.372Z,96210.31
2023-07-11T17:28:27.873Z,96193.16
2023-07-11T17:33:27.344Z,96183.06
2023-07-11T17:38:25.575Z,96161.63
2023-07-11T17:43:19.900Z,96160.81
2023-07-11T17:48:26.428Z,96148.00
2023-07-11T17:53:20.071Z,96149.13
2023-07-11T17:58:27.356Z,96161.16
2023-07-11T18:03:20.748Z,96142.00
2023-07-11T18:08:18.830Z,96116.22
2023-07-11T18:13:11.675Z,96095.94
2023-07-11T18:18:06.186Z,96102.84
2023-07-11T18:23:01.077Z,96097.31
2023-07-11T18:27:54.443Z,96096.41
2023-07-11T18:32:46.864Z,96075.72
2023-07-11T18:37:40.025Z,96053.91
2023-07-11T18:42:31.880Z,96035.97
2023-07-11T18:47:33.679Z,96041.28
2023-07-11T18:52:30.634Z,96054.03
2023-07-11T18:57:28.504Z,96040.72
2023-07-11T19:02:28.502Z,96042.94
2023-07-11T19:07:30.348Z,96042.81
2023-07-11T19:12:34.110Z,96034.81
2023-07-11T19:17:51.990Z,96037.72
2023-07-11T19:22:46.573Z,96025.13
2023-07-11T19:27:38.267Z,96026.97
2023-07-11T19:32:32.198Z,96007.88
2023-07-11T19:37:23.920Z,96001.59
2023-07-11T19:42:21.804Z,96002.31
2023-07-11T19:47:23.451Z,96027.50
2023-07-11T19:52:18.411Z,96072.47
2023-07-11T19:57:20.052Z,96187.91
2023-07-11T20:02:20.000Z,96404.19
2023-07-11T20:07:14.007Z,96601.75
2023-07-11T20:27:40.913Z,96782.50
2023-07-11T21:16:37.119Z,96822.41
2023-07-11T21:21:29.361Z,96779.38
2023-07-11T21:26:23.175Z,96756.78
2023-07-11T21:31:18.804Z,96715.63
2023-07-11T21:56:38.817Z,96693.75
2023-07-11T22:26:58.825Z,96791.19
2023-07-11T22:37:03.115Z,96653.28
2023-07-11T22:41:54.845Z,96602.41
2023-07-11T22:46:46.897Z,96625.59
2023-07-11T22:51:38.724Z,96636.63
2023-07-11T22:56:30.454Z,96637.91
2023-07-11T23:01:22.896Z,96668.41
2023-07-11T23:06:24.434Z,96700.66
2023-07-11T23:27:16.837Z,96607.03
2023-07-11T23:32:09.673Z,96601.84
2023-07-11T23:37:01.388Z,96602.53
2023-07-11T23:41:53.188Z,96609.25
2023-07-11T23:46:44.948Z,96632.28
2023-07-11T23:51:36.709Z,96700.56
2023-07-11T23:56:31.469Z,96704.75
